createdAt,value
2023-02-28T00:00:18.912Z,83.1
2023-02-28T00:01:35.212Z,83.7
2023-02-28T00:02:51.490Z,83.8
2023-02-28T00:04:07.796Z,83.8
2023-02-28T00:05:24.082Z,83.6
2023-02-28T00:06:40.378Z,83.8
2023-02-28T00:07:56.679Z,83.9
2023-02-28T00:09:12.973Z,84.3
2023-02-28T00:10:28.279Z,84.4
2023-02-28T00:11:44.579Z,84.5
2023-02-28T00:13:00.871Z,84
2023-02-28T00:14:17.156Z,83
2023-02-28T00:15:33.459Z,83.2
2023-02-28T00:16:49.746Z,83.3
2023-02-28T00:18:06.033Z,83.3
2023-02-28T00:19:22.341Z,83.7
2023-02-28T00:20:38.639Z,83.5
2023-02-28T00:21:54.915Z,83.2
2023-02-28T00:23:11.217Z,82.4
2023-02-28T00:24:27.522Z,82.6
2023-02-28T00:25:43.803Z,82.8
2023-02-28T00:26:59.112Z,82.9
2023-02-28T00:28:15.408Z,83.1
2023-02-28T00:29:31.713Z,83.3
2023-02-28T00:30:48.002Z,83.5
2023-02-28T00:32:04.294Z,83.7
2023-02-28T00:33:20.580Z,83.7
2023-02-28T00:34:36.876Z,83.7
2023-02-28T00:35:53.184Z,83.9
2023-02-28T00:37:09.458Z,83.6
2023-02-28T00:38:25.757Z,83.2
2023-02-28T00:39:42.048Z,83.7
2023-02-28T00:40:58.350Z,83.6
2023-02-28T00:42:14.643Z,83
2023-02-28T00:43:29.949Z,83.3
2023-02-28T00:44:46.240Z,83
2023-02-28T00:46:02.548Z,82.8
2023-02-28T00:47:18.857Z,83
2023-02-28T00:48:35.133Z,83.2
2023-02-28T00:49:51.426Z,83.4
2023-02-28T00:51:06.739Z,83.3
2023-02-28T00:52:23.038Z,83.2
2023-02-28T00:53:39.320Z,83.6
2023-02-28T00:54:55.627Z,83.9
2023-02-28T00:56:11.914Z,83.5
2023-02-28T00:57:28.213Z,83.4
2023-02-28T00:58:44.512Z,83.4
2023-02-28T01:00:00.803Z,83.3
2023-02-28T01:01:17.084Z,83
2023-02-28T01:02:33.383Z,83.2
2023-02-28T01:03:49.686Z,83.3
2023-02-28T01:05:05.968Z,83.2
2023-02-28T01:06:22.265Z,83.2
2023-02-28T01:07:37.573Z,83
2023-02-28T01:08:53.882Z,83
2023-02-28T01:10:10.168Z,83.3
2023-02-28T01:11:26.454Z,83.7
2023-02-28T01:12:42.759Z,84
2023-02-28T01:13:59.040Z,84.1
2023-02-28T01:15:15.342Z,84
2023-02-28T01:16:31.635Z,84.3
2023-02-28T01:17:47.936Z,84.7
2023-02-28T01:19:04.237Z,84.5
2023-02-28T01:20:20.522Z,84.3
2023-02-28T01:21:36.816Z,84
2023-02-28T01:22:53.108Z,84
2023-02-28T01:24:08.411Z,84.2
2023-02-28T01:25:24.721Z,84.1
2023-02-28T01:26:41.005Z,84
2023-02-28T01:27:57.307Z,83.9
2023-02-28T01:29:13.584Z,84
2023-02-28T01:30:29.897Z,84.1
2023-02-28T01:31:46.183Z,84.3
2023-02-28T01:33:02.469Z,84
2023-02-28T01:34:18.769Z,84.1
2023-02-28T01:35:35.072Z,83.9
2023-02-28T01:36:51.360Z,83.7
2023-02-28T01:38:07.664Z,83.5
2023-02-28T01:39:23.955Z,83.8
2023-02-28T01:40:39.268Z,84
2023-02-28T01:41:55.555Z,84.1
2023-02-28T01:43:11.843Z,84.1
2023-02-28T01:44:28.149Z,84.3
2023-02-28T01:45:44.442Z,84.2
2023-02-28T01:47:00.726Z,84.1
2023-02-28T01:48:17.016Z,84.1
2023-02-28T01:49:33.327Z,84.5
2023-02-28T01:50:49.617Z,84.5
2023-02-28T01:52:05.910Z,84.5
2023-02-28T01:53:22.189Z,84.7
2023-02-28T01:54:38.493Z,85
2023-02-28T01:55:54.778Z,85.3
2023-02-28T01:57:10.094Z,84.5
2023-02-28T01:58:26.384Z,84.3
2023-02-28T01:59:42.675Z,84.5
2023-02-28T02:00:58.978Z,85.1
2023-02-28T02:02:15.270Z,85.4
2023-02-28T02:03:31.575Z,85.4
2023-02-28T02:04:47.863Z,85.2
2023-02-28T02:06:04.145Z,84.9
2023-02-28T02:07:20.442Z,84.7
2023-02-28T02:08:36.750Z,84.7
2023-02-28T02:09:53.029Z,84.7
2023-02-28T02:11:09.325Z,84.5
2023-02-28T02:12:25.615Z,84.7
2023-02-28T02:13:40.934Z,84.7
2023-02-28T02:14:57.222Z,85.1
2023-02-28T02:16:13.517Z,85.2
2023-02-28T02:17:29.828Z,85.4
2023-02-28T02:18:46.107Z,85.4
2023-02-28T02:20:02.406Z,85.5
2023-02-28T02:21:18.708Z,85.5
2023-02-28T02:22:34.995Z,85.7
2023-02-28T02:23:51.299Z,85.6
2023-02-28T02:25:07.589Z,85.3
2023-02-28T02:26:23.879Z,85.2
2023-02-28T02:27:40.163Z,85
2023-02-28T02:28:56.458Z,85.1
2023-02-28T02:30:11.778Z,85.3
2023-02-28T02:31:28.072Z,85
2023-02-28T02:32:44.366Z,84.8
2023-02-28T02:34:00.652Z,84.8
2023-02-28T02:35:16.955Z,84.8
2023-02-28T02:36:33.239Z,84.7
2023-02-28T02:37:49.537Z,84.6
2023-02-28T02:39:05.842Z,84.6
2023-02-28T02:40:22.139Z,84.8
2023-02-28T02:41:38.415Z,84.9
2023-02-28T02:42:54.709Z,84.7
2023-02-28T02:44:11.011Z,84.8
2023-02-28T02:45:27.299Z,85
2023-02-28T02:46:42.629Z,85
2023-02-28T02:47:58.911Z,85.2
2023-02-28T02:49:15.195Z,85.3
2023-02-28T02:50:31.506Z,85.2
2023-02-28T02:51:47.793Z,84.8
2023-02-28T02:53:04.079Z,84.7
2023-02-28T02:54:20.392Z,84.9
2023-02-28T02:55:36.671Z,85.6
2023-02-28T02:56:52.961Z,85.7
2023-02-28T02:58:09.270Z,85.9
2023-02-28T02:59:25.562Z,85.9
2023-02-28T03:00:41.851Z,86
2023-02-28T03:01:58.155Z,86.1
2023-02-28T03:03:13.455Z,85.9
2023-02-28T03:04:29.760Z,85.8
2023-02-28T03:05:46.052Z,85.7
2023-02-28T03:07:02.329Z,85.6
2023-02-28T03:08:18.626Z,85.5
2023-02-28T03:09:34.937Z,85.4
2023-02-28T03:10:51.218Z,85.4
2023-02-28T03:12:07.521Z,85.6
2023-02-28T03:13:23.807Z,85.5
2023-02-28T03:14:40.109Z,85.3
2023-02-28T03:15:56.402Z,85.5
2023-02-28T03:17:12.681Z,85.8
2023-02-28T03:18:29.000Z,85.8
2023-02-28T03:19:44.305Z,85.9
2023-02-28T03:21:00.582Z,85.9
2023-02-28T03:22:16.879Z,86.1
2023-02-28T03:23:33.178Z,86
2023-02-28T03:24:49.485Z,86.2
2023-02-28T03:26:05.760Z,86.3
2023-02-28T03:27:22.068Z,86.5
2023-02-28T03:28:38.355Z,86.5
2023-02-28T03:29:54.639Z,86.8
2023-02-28T03:31:10.943Z,87
2023-02-28T03:32:27.240Z,87.1
2023-02-28T03:33:43.543Z,87
2023-02-28T03:34:59.829Z,87.1
2023-02-28T03:36:15.128Z,87.3
2023-02-28T03:37:31.431Z,87.3
2023-02-28T03:38:47.721Z,87.4
2023-02-28T03:40:04.024Z,87.2
2023-02-28T03:41:20.315Z,86.8
2023-02-28T03:42:36.607Z,87
2023-02-28T03:43:52.899Z,87.3
2023-02-28T03:45:09.203Z,87.7
2023-02-28T03:46:25.494Z,88.4
2023-02-28T03:47:41.802Z,88.4
2023-02-28T03:48:58.073Z,88.2
2023-02-28T03:50:14.380Z,88.1
2023-02-28T03:51:30.673Z,87.9
2023-02-28T03:52:45.972Z,87.8
2023-02-28T03:54:02.276Z,87.7
2023-02-28T03:55:18.558Z,87.6
2023-02-28T03:56:34.868Z,87.3
2023-02-28T03:57:51.157Z,86.4
2023-02-28T03:59:07.441Z,86.1
2023-02-28T04:00:23.754Z,86.3
2023-02-28T04:01:40.042Z,86.6
2023-02-28T04:02:56.322Z,86.4
2023-02-28T04:04:12.616Z,86.2
2023-02-28T04:05:28.921Z,85.9
2023-02-28T04:06:45.206Z,85.7
2023-02-28T04:08:01.507Z,85.6
2023-02-28T04:09:16.808Z,85.5
2023-02-28T04:10:33.122Z,85.9
2023-02-28T04:11:49.406Z,86
2023-02-28T04:13:05.690Z,86.1
2023-02-28T04:14:22.000Z,86.1
2023-02-28T04:15:38.285Z,85.8
2023-02-28T04:16:54.586Z,85.8
2023-02-28T04:18:10.869Z,85.7
2023-02-28T04:19:27.172Z,85.5
2023-02-28T04:20:43.455Z,85.6
2023-02-28T04:21:59.768Z,85.7
2023-02-28T04:23:16.051Z,85.7
2023-02-28T04:24:32.355Z,85.7
2023-02-28T04:25:47.674Z,85.3
2023-02-28T04:27:03.952Z,85.2
2023-02-28T04:28:20.242Z,85
2023-02-28T04:29:36.534Z,84.9
2023-02-28T04:30:52.838Z,84.6
2023-02-28T04:32:09.120Z,85.2
2023-02-28T04:33:25.423Z,85
2023-02-28T04:34:41.719Z,85.2
2023-02-28T04:35:58.001Z,84.7
2023-02-28T04:37:14.315Z,84.9
2023-02-28T04:38:30.610Z,85.2
2023-02-28T04:39:46.902Z,85.2
2023-02-28T04:41:03.177Z,85.3
2023-02-28T04:42:18.503Z,85.4
2023-02-28T04:43:34.781Z,85.5
2023-02-28T04:44:51.087Z,85.4
2023-02-28T04:46:07.382Z,85
2023-02-28T04:47:23.666Z,84.8
2023-02-28T04:48:39.959Z,85.4
2023-02-28T04:49:56.271Z,85.5
2023-02-28T04:51:12.573Z,84.6
2023-02-28T04:52:28.845Z,84.6
2023-02-28T04:53:45.146Z,84.4
2023-02-28T04:55:01.430Z,83.9
2023-02-28T04:56:17.730Z,83.8
2023-02-28T04:57:34.032Z,84.1
2023-02-28T04:58:49.346Z,84
2023-02-28T05:00:05.628Z,84.3
2023-02-28T05:01:21.945Z,84.3
2023-02-28T05:02:38.221Z,83.8
2023-02-28T05:03:54.523Z,84.1
2023-02-28T05:05:10.800Z,84.1
2023-02-28T05:06:26.117Z,84.3
2023-02-28T05:07:42.410Z,84.4
2023-02-28T05:08:58.719Z,84.4
2023-02-28T05:10:15.009Z,84.1
2023-02-28T05:11:31.297Z,83.9
2023-02-28T05:12:47.604Z,83.7
2023-02-28T05:14:03.886Z,83.6
2023-02-28T05:15:20.188Z,83.1
2023-02-28T05:16:36.479Z,83.4
2023-02-28T05:17:52.777Z,83.6
2023-02-28T05:19:09.069Z,86.5
2023-02-28T05:20:25.356Z,85.5
2023-02-28T05:21:41.656Z,84.4
2023-02-28T05:22:56.960Z,83.7
2023-02-28T05:24:13.250Z,84
2023-02-28T05:25:29.560Z,88.5
2023-02-28T05:26:45.854Z,87.1
2023-02-28T05:28:02.153Z,84.3
2023-02-28T05:29:18.379Z,83.6
2023-02-28T05:30:34.680Z,83.6
2023-02-28T05:31:50.935Z,83.2
2023-02-28T05:33:07.173Z,83.4
2023-02-28T05:34:23.457Z,83.4
2023-02-28T05:35:39.705Z,83.6
2023-02-28T05:36:55.955Z,83.7
2023-02-28T05:38:12.255Z,83.7
2023-02-28T05:39:27.552Z,83.6
2023-02-28T05:40:43.812Z,83.8
2023-02-28T05:42:00.043Z,83.9
2023-02-28T05:43:16.281Z,83.9
2023-02-28T05:44:32.533Z,83.9
2023-02-28T05:45:48.772Z,84.3
2023-02-28T05:47:05.018Z,84.4
2023-02-28T05:48:21.240Z,84.3
2023-02-28T05:49:37.486Z,84
2023-02-28T05:50:53.720Z,84
2023-02-28T05:52:09.970Z,84
2023-02-28T05:53:26.203Z,84
2023-02-28T05:54:42.448Z,84.2
2023-02-28T05:55:57.714Z,84.3
2023-02-28T05:57:13.947Z,84.5
2023-02-28T05:58:30.190Z,85.8
2023-02-28T05:59:46.429Z,91.8
2023-02-28T06:01:02.674Z,89.9
2023-02-28T06:02:18.906Z,86.1
2023-02-28T06:03:35.150Z,84.7
2023-02-28T06:04:51.384Z,84.1
2023-02-28T06:06:07.637Z,84
2023-02-28T06:07:23.876Z,84.2
2023-02-28T06:08:40.114Z,84.4
2023-02-28T06:09:56.353Z,84.4
2023-02-28T06:11:12.581Z,84.5
2023-02-28T06:12:27.860Z,84.7
2023-02-28T06:13:44.089Z,93.7
2023-02-28T06:15:00.320Z,95.8
2023-02-28T06:16:16.555Z,91.7
2023-02-28T06:17:32.813Z,87.2
2023-02-28T06:18:49.039Z,85.6
2023-02-28T06:20:05.280Z,85.4
2023-02-28T06:21:21.538Z,84.4
2023-02-28T06:22:37.766Z,84.1
2023-02-28T06:23:53.999Z,84.3
2023-02-28T06:25:10.250Z,84.5
2023-02-28T06:26:26.485Z,84.5
2023-02-28T06:27:42.720Z,84.6
2023-02-28T06:28:57.986Z,84.6
2023-02-28T06:30:14.229Z,85
2023-02-28T06:31:30.476Z,85.1
2023-02-28T06:32:46.721Z,85.6
2023-02-28T06:34:02.949Z,85.9
2023-02-28T06:35:19.193Z,86
2023-02-28T06:36:35.426Z,86.2
2023-02-28T06:37:51.688Z,85.9
2023-02-28T06:39:07.917Z,85.8
2023-02-28T06:40:24.146Z,86
2023-02-28T06:41:40.398Z,86
2023-02-28T06:42:56.621Z,86.2
2023-02-28T06:44:12.861Z,85.9
2023-02-28T06:45:28.127Z,85.7
2023-02-28T06:46:44.371Z,85.7
2023-02-28T06:48:00.606Z,85.3
2023-02-28T06:49:16.853Z,85.4
2023-02-28T06:50:33.074Z,85.5
2023-02-28T06:51:49.317Z,85.7
2023-02-28T06:53:05.570Z,85.9
2023-02-28T06:54:21.812Z,85.7
2023-02-28T06:55:38.046Z,85.1
2023-02-28T06:56:54.279Z,85.3
2023-02-28T06:58:10.544Z,85.4
2023-02-28T06:59:26.781Z,85.4
2023-02-28T07:00:43.017Z,85.1
2023-02-28T07:01:58.273Z,84.8
2023-02-28T07:03:14.505Z,85
2023-02-28T07:04:30.751Z,84.5
2023-02-28T07:05:46.992Z,84.6
2023-02-28T07:07:03.232Z,84.6
2023-02-28T07:08:19.468Z,85.1
2023-02-28T07:09:35.700Z,85.2
2023-02-28T07:10:51.957Z,84.8
2023-02-28T07:12:08.181Z,84.3
2023-02-28T07:13:24.428Z,84.3
2023-02-28T07:14:40.663Z,84.1
2023-02-28T07:15:56.904Z,84
2023-02-28T07:17:13.150Z,83.3
2023-02-28T07:18:28.405Z,82.7
2023-02-28T07:19:44.641Z,82.6
2023-02-28T07:21:00.881Z,82.8
2023-02-28T07:22:17.147Z,82.7
2023-02-28T07:23:33.365Z,82.5
2023-02-28T07:24:49.612Z,82
2023-02-28T07:26:05.854Z,81.8
2023-02-28T07:27:22.088Z,81.6
2023-02-28T07:28:38.335Z,81.5
2023-02-28T07:29:54.575Z,81.3
2023-02-28T07:31:10.815Z,80.4
2023-02-28T07:32:27.043Z,79.8
2023-02-28T07:33:43.284Z,79.6
2023-02-28T07:34:58.550Z,79.2
2023-02-28T07:36:14.786Z,78.8
2023-02-28T07:37:31.028Z,78.2
2023-02-28T07:38:47.257Z,78.2
2023-02-28T07:40:03.498Z,78.5
2023-02-28T07:41:19.736Z,78.1
2023-02-28T07:42:35.984Z,78.1
2023-02-28T07:43:52.232Z,77.7
2023-02-28T07:45:08.456Z,77.4
2023-02-28T07:46:24.713Z,77
2023-02-28T07:47:40.935Z,77.1
2023-02-28T07:48:57.181Z,76.8
2023-02-28T07:50:13.432Z,76.5
2023-02-28T07:51:28.685Z,76.2
2023-02-28T07:52:44.917Z,75.5
2023-02-28T07:54:01.161Z,74.9
2023-02-28T07:55:17.410Z,75
2023-02-28T07:56:33.648Z,74.1
2023-02-28T07:57:49.886Z,73.6
2023-02-28T07:59:06.141Z,73.1
2023-02-28T08:00:22.366Z,73.2
2023-02-28T08:01:38.599Z,73.5
2023-02-28T08:02:54.852Z,73.2
2023-02-28T08:04:11.082Z,73.1
2023-02-28T08:05:27.318Z,72.4
2023-02-28T08:06:43.568Z,72.4
2023-02-28T08:07:58.817Z,72
2023-02-28T08:09:15.049Z,71.7
2023-02-28T08:10:31.293Z,71.1
2023-02-28T08:11:47.542Z,70.7
2023-02-28T08:13:03.782Z,70.5
2023-02-28T08:14:20.017Z,69.5
2023-02-28T08:15:36.257Z,69.3
2023-02-28T08:16:52.512Z,70.1
2023-02-28T08:18:08.735Z,70.5
2023-02-28T08:19:24.987Z,69.6
2023-02-28T08:20:41.213Z,69.4
2023-02-28T08:21:57.455Z,67.8
2023-02-28T08:23:13.713Z,67.7
2023-02-28T08:24:28.948Z,67.6
2023-02-28T08:25:45.204Z,68.5
2023-02-28T08:27:01.432Z,68.4
2023-02-28T08:28:17.689Z,67.4
2023-02-28T08:29:33.928Z,67.5
2023-02-28T08:30:50.162Z,66
2023-02-28T08:32:06.392Z,65.7
2023-02-28T08:33:22.648Z,66.6
2023-02-28T08:34:38.885Z,66.1
2023-02-28T08:35:55.114Z,66.4
2023-02-28T08:37:11.352Z,65.8
2023-02-28T08:38:27.602Z,66.2
2023-02-28T08:39:43.840Z,66.3
2023-02-28T08:40:59.092Z,66.9
2023-02-28T08:42:15.330Z,65.6
2023-02-28T08:43:31.586Z,64.2
2023-02-28T08:44:47.813Z,64.8
2023-02-28T08:46:04.060Z,64.6
2023-02-28T08:47:20.292Z,64.3
2023-02-28T08:48:36.532Z,65
2023-02-28T08:49:52.777Z,65.5
2023-02-28T08:51:09.011Z,63.5
2023-02-28T08:52:25.250Z,64.4
2023-02-28T08:53:41.499Z,63.8
2023-02-28T08:54:57.747Z,65.3
2023-02-28T08:56:13.979Z,65.8
2023-02-28T08:57:29.243Z,64.7
2023-02-28T08:58:45.482Z,63.1
2023-02-28T09:00:01.720Z,64.1
2023-02-28T09:01:17.945Z,63.5
2023-02-28T09:02:34.195Z,64.1
2023-02-28T09:03:50.439Z,63.4
2023-02-28T09:05:06.671Z,64
2023-02-28T09:06:22.923Z,65.3
2023-02-28T09:07:39.161Z,64.1
2023-02-28T09:08:55.391Z,62.7
2023-02-28T09:10:11.630Z,62.1
2023-02-28T09:11:27.879Z,62.9
2023-02-28T09:12:44.114Z,62.3
2023-02-28T09:13:59.373Z,62.3
2023-02-28T09:15:15.613Z,62.8
2023-02-28T09:16:31.845Z,62.3
2023-02-28T09:17:48.090Z,61.8
2023-02-28T09:19:04.338Z,61.1
2023-02-28T09:20:20.571Z,61.7
2023-02-28T09:21:35.830Z,62.4
2023-02-28T09:22:52.078Z,63
2023-02-28T09:24:08.303Z,61.9
2023-02-28T09:25:24.543Z,61
2023-02-28T09:26:40.788Z,61
2023-02-28T09:27:57.022Z,59.2
2023-02-28T09:29:13.272Z,60.2
2023-02-28T09:30:29.507Z,60.3
2023-02-28T09:31:45.742Z,58.9
2023-02-28T09:33:01.989Z,57.7
2023-02-28T09:34:18.238Z,58.8
2023-02-28T09:35:34.466Z,58.8
2023-02-28T09:36:50.711Z,59.3
2023-02-28T09:38:05.977Z,60.3
2023-02-28T09:39:22.200Z,60
2023-02-28T09:40:38.438Z,59.2
2023-02-28T09:41:54.693Z,58.1
2023-02-28T09:43:10.921Z,56.6
2023-02-28T09:44:27.159Z,56.2
2023-02-28T09:45:43.401Z,56.6
2023-02-28T09:46:59.657Z,56
2023-02-28T09:48:15.880Z,55.4
2023-02-28T09:49:32.122Z,55.7
2023-02-28T09:50:48.375Z,54.4
2023-02-28T09:52:04.611Z,55.1
2023-02-28T09:53:20.844Z,54.8
2023-02-28T09:54:36.106Z,53.3
2023-02-28T09:55:52.347Z,54.8
2023-02-28T09:57:08.586Z,54.8
2023-02-28T09:58:24.818Z,55.4
2023-02-28T09:59:41.054Z,54.8
2023-02-28T10:00:57.293Z,53.8
2023-02-28T10:02:13.543Z,53.8
2023-02-28T10:03:29.780Z,54.3
2023-02-28T10:04:46.012Z,54.4
2023-02-28T10:06:02.256Z,54.9
2023-02-28T10:07:18.500Z,55.3
2023-02-28T10:08:34.740Z,54.6
2023-02-28T10:09:50.982Z,54
2023-02-28T10:11:06.241Z,55.1
2023-02-28T10:12:22.470Z,55.1
2023-02-28T10:13:38.721Z,56.1
2023-02-28T10:14:54.966Z,54.8
2023-02-28T10:16:11.192Z,54
2023-02-28T10:17:27.441Z,53.5
2023-02-28T10:18:43.675Z,52.1
2023-02-28T10:19:59.914Z,51.1
2023-02-28T10:21:16.151Z,52
2023-02-28T10:22:32.395Z,52.3
2023-02-28T10:23:48.647Z,52.8
2023-02-28T10:25:04.876Z,52.1
2023-02-28T10:26:21.113Z,51.4
2023-02-28T10:27:36.368Z,50.6
2023-02-28T10:28:52.613Z,50
2023-02-28T10:30:08.852Z,49
2023-02-28T10:31:25.086Z,48.4
2023-02-28T10:32:41.329Z,49
2023-02-28T10:33:57.572Z,50.3
2023-02-28T10:35:13.805Z,50.3
2023-02-28T10:36:30.042Z,50.6
2023-02-28T10:37:46.296Z,50.2
2023-02-28T10:39:02.528Z,49.5
2023-02-28T10:40:18.765Z,50.2
2023-02-28T10:41:35.004Z,50.6
2023-02-28T10:42:51.255Z,50.7
2023-02-28T10:44:06.505Z,52.5
2023-02-28T10:45:22.741Z,52.4
2023-02-28T10:46:38.984Z,51.9
2023-02-28T10:47:55.224Z,51.9
2023-02-28T10:49:11.455Z,51.9
2023-02-28T10:50:27.703Z,53.1
2023-02-28T10:51:43.936Z,52.6
2023-02-28T10:53:00.178Z,53.5
2023-02-28T10:54:16.421Z,52.9
2023-02-28T10:55:32.659Z,53.3
2023-02-28T10:56:48.902Z,53.8
2023-02-28T10:58:05.138Z,53.5
2023-02-28T10:59:21.384Z,53.2
2023-02-28T11:00:36.631Z,54.4
2023-02-28T11:01:52.871Z,52.9
2023-02-28T11:03:09.116Z,53.4
2023-02-28T11:04:25.351Z,53.3
2023-02-28T11:05:41.587Z,53.5
2023-02-28T11:06:57.837Z,52.8
2023-02-28T11:08:14.066Z,51.5
2023-02-28T11:09:30.314Z,51.7
2023-02-28T11:10:46.562Z,49.8
2023-02-28T11:12:02.808Z,48.9
2023-02-28T11:13:19.031Z,48.5
2023-02-28T11:14:35.268Z,48.9
2023-02-28T11:15:51.516Z,48.8
2023-02-28T11:17:06.778Z,47.4
2023-02-28T11:18:23.001Z,47.7
2023-02-28T11:19:39.244Z,48.6
2023-02-28T11:20:55.496Z,49.3
2023-02-28T11:22:11.730Z,48.9
2023-02-28T11:23:27.974Z,48.5
2023-02-28T11:24:44.206Z,48.9
2023-02-28T11:26:00.447Z,48
2023-02-28T11:27:16.695Z,49.1
2023-02-28T11:28:32.938Z,47.9
2023-02-28T11:29:49.173Z,47.7
2023-02-28T11:31:05.415Z,47.5
2023-02-28T11:32:21.645Z,46.6
2023-02-28T11:33:36.906Z,46.9
2023-02-28T11:34:53.150Z,46.5
2023-02-28T11:36:09.384Z,46.2
2023-02-28T11:37:25.639Z,45.1
2023-02-28T11:38:41.858Z,45.8
2023-02-28T11:39:58.099Z,46.5
2023-02-28T11:41:14.343Z,49
2023-02-28T11:42:30.590Z,48.1
2023-02-28T11:43:46.822Z,46.8
2023-02-28T11:45:03.065Z,45.3
2023-02-28T11:46:19.308Z,46.4
2023-02-28T11:47:35.545Z,46
2023-02-28T11:48:51.790Z,47
2023-02-28T11:50:07.050Z,45.4
2023-02-28T11:51:23.284Z,44.8
2023-02-28T11:52:39.529Z,45.1
2023-02-28T11:53:55.769Z,45.4
2023-02-28T11:55:11.995Z,43
2023-02-28T11:56:28.243Z,44.1
2023-02-28T11:57:44.492Z,45
2023-02-28T11:59:00.728Z,44.5
2023-02-28T12:00:16.971Z,44.7
2023-02-28T12:01:33.202Z,46
2023-02-28T12:02:49.453Z,47.2
2023-02-28T12:04:05.694Z,47.8
2023-02-28T12:05:21.930Z,46.5
2023-02-28T12:06:37.191Z,47
2023-02-28T12:07:53.421Z,47.4
2023-02-28T12:09:09.651Z,47.1
2023-02-28T12:10:25.893Z,46.4
2023-02-28T12:11:42.131Z,45.8
2023-02-28T12:12:58.379Z,45.3
2023-02-28T12:14:14.616Z,45.6
2023-02-28T12:15:30.858Z,46.8
2023-02-28T12:16:47.102Z,47.3
2023-02-28T12:18:03.331Z,46.4
2023-02-28T12:19:19.580Z,47.2
2023-02-28T12:20:35.811Z,46.4
2023-02-28T12:21:52.059Z,46.8
2023-02-28T12:23:07.327Z,48.3
2023-02-28T12:24:23.566Z,46.3
2023-02-28T12:25:39.793Z,45.2
2023-02-28T12:26:56.028Z,45.1
2023-02-28T12:28:12.287Z,46.1
2023-02-28T12:29:28.512Z,44.8
2023-02-28T12:30:44.754Z,45.8
2023-02-28T12:32:00.987Z,43.7
2023-02-28T12:33:17.229Z,43.5
2023-02-28T12:34:33.481Z,45.1
2023-02-28T12:35:49.721Z,45.4
2023-02-28T12:37:05.967Z,44.6
2023-02-28T12:38:22.188Z,44.8
2023-02-28T12:39:37.462Z,44.6
2023-02-28T12:40:53.697Z,44.9
2023-02-28T12:42:09.937Z,45.5
2023-02-28T12:43:26.180Z,45.6
2023-02-28T12:44:42.420Z,44.2
2023-02-28T12:45:58.650Z,44
2023-02-28T12:47:14.894Z,46.3
2023-02-28T12:48:31.124Z,45.7
2023-02-28T12:49:47.367Z,45.5
2023-02-28T12:51:03.607Z,45
2023-02-28T12:52:19.848Z,44
2023-02-28T12:53:36.088Z,44.5
2023-02-28T12:54:52.325Z,44
2023-02-28T12:56:07.591Z,43.3
2023-02-28T12:57:23.833Z,43.5
2023-02-28T12:58:40.063Z,44
2023-02-28T12:59:56.311Z,44
2023-02-28T13:01:12.538Z,44.3
2023-02-28T13:02:28.790Z,45
2023-02-28T13:03:45.012Z,45.8
2023-02-28T13:05:01.260Z,45
2023-02-28T13:06:17.495Z,44.1
2023-02-28T13:07:33.747Z,45.3
2023-02-28T13:10:06.224Z,44.8
2023-02-28T13:11:22.461Z,44.3
2023-02-28T13:12:37.704Z,44.5
2023-02-28T13:13:53.956Z,43.9
2023-02-28T13:15:10.187Z,44.2
2023-02-28T13:16:26.431Z,43
2023-02-28T13:17:42.674Z,44.7
2023-02-28T13:18:58.904Z,43.8
2023-02-28T13:20:15.155Z,44.5
2023-02-28T13:21:31.386Z,44
2023-02-28T13:22:47.628Z,43.8
2023-02-28T13:24:03.857Z,44.2
2023-02-28T13:25:20.095Z,43
2023-02-28T13:26:36.348Z,43
2023-02-28T13:27:52.585Z,43.2
2023-02-28T13:29:07.827Z,44.2
2023-02-28T13:30:24.079Z,43.4
2023-02-28T13:31:40.322Z,44
2023-02-28T13:32:56.553Z,42.7
2023-02-28T13:34:12.794Z,42.3
2023-02-28T13:35:29.020Z,42.3
2023-02-28T13:36:44.289Z,44.1
2023-02-28T13:38:00.529Z,42.9
2023-02-28T13:39:16.771Z,43.7
2023-02-28T13:40:33.003Z,43.8
2023-02-28T13:41:49.248Z,44.6
2023-02-28T13:43:05.493Z,44.1
2023-02-28T13:44:21.732Z,44.9
2023-02-28T13:45:37.969Z,44.3
2023-02-28T13:46:54.200Z,45
2023-02-28T13:48:10.451Z,44.5
2023-02-28T13:49:26.687Z,45
2023-02-28T13:50:42.919Z,44.6
2023-02-28T13:51:59.150Z,45
2023-02-28T13:53:14.416Z,43.1
2023-02-28T13:54:30.665Z,43.6
2023-02-28T13:55:46.899Z,44
2023-02-28T13:57:03.134Z,44.9
2023-02-28T13:58:19.361Z,43.6
2023-02-28T13:59:35.605Z,42.8
2023-02-28T14:00:51.850Z,43.2
2023-02-28T14:02:08.087Z,43.6
2023-02-28T14:03:24.312Z,43.8
2023-02-28T14:04:40.575Z,43.7
2023-02-28T14:05:56.792Z,43.4
2023-02-28T14:07:13.044Z,43.1
2023-02-28T14:08:29.287Z,42.5
2023-02-28T14:09:44.533Z,42.6
2023-02-28T14:11:00.763Z,43.1
2023-02-28T14:12:17.016Z,43.9
2023-02-28T14:13:33.244Z,43.9
2023-02-28T14:14:49.486Z,44.2
2023-02-28T14:16:05.717Z,43.1
2023-02-28T14:17:21.980Z,42.8
2023-02-28T14:18:38.194Z,42.6
2023-02-28T14:19:54.441Z,43.5
2023-02-28T14:21:10.672Z,42.8
2023-02-28T14:22:26.911Z,43
2023-02-28T14:23:43.156Z,43.7
2023-02-28T14:24:59.394Z,43.4
2023-02-28T14:26:14.641Z,44.2
2023-02-28T14:27:30.889Z,44.9
2023-02-28T14:28:47.133Z,45.2
2023-02-28T14:30:03.375Z,44.3
2023-02-28T14:31:19.597Z,45.1
2023-02-28T14:32:35.843Z,45.1
2023-02-28T14:33:52.080Z,45.3
2023-02-28T14:35:08.329Z,46.3
2023-02-28T14:36:24.553Z,46.3
2023-02-28T14:37:40.796Z,45.5
2023-02-28T14:38:57.038Z,46
2023-02-28T14:40:13.268Z,44.3
2023-02-28T14:41:29.511Z,44.2
2023-02-28T14:42:44.779Z,44.4
2023-02-28T14:44:01.010Z,44.2
2023-02-28T14:45:17.251Z,43.6
2023-02-28T14:46:33.497Z,44.8
2023-02-28T14:47:49.731Z,44
2023-02-28T14:49:05.974Z,44.3
2023-02-28T14:50:22.200Z,44.6
2023-02-28T14:51:38.445Z,44.2
2023-02-28T14:52:54.686Z,43.9
2023-02-28T14:54:10.909Z,44.3
2023-02-28T14:55:27.149Z,44.5
2023-02-28T14:56:43.401Z,45.1
2023-02-28T14:57:59.642Z,45.6
2023-02-28T14:59:14.900Z,44.5
2023-02-28T15:00:31.124Z,44
2023-02-28T15:01:47.368Z,43.4
2023-02-28T15:03:03.614Z,43.9
2023-02-28T15:04:19.848Z,44.3
2023-02-28T15:05:36.072Z,45.2
2023-02-28T15:06:52.312Z,43.1
2023-02-28T15:08:08.567Z,44.8
2023-02-28T15:09:24.808Z,45
2023-02-28T15:10:41.036Z,45.1
2023-02-28T15:11:57.266Z,45.1
2023-02-28T15:13:13.505Z,46.1
2023-02-28T15:14:29.747Z,46.4
2023-02-28T15:15:45.001Z,46.8
2023-02-28T15:17:01.254Z,47
2023-02-28T15:18:17.494Z,47.4
2023-02-28T15:19:33.717Z,47.6
2023-02-28T15:20:49.961Z,47.4
2023-02-28T15:22:06.203Z,46.9
2023-02-28T15:23:22.445Z,46.6
2023-02-28T15:24:38.674Z,47.9
2023-02-28T15:25:54.922Z,47.6
2023-02-28T15:27:11.164Z,48.5
2023-02-28T15:28:27.395Z,48.1
2023-02-28T15:29:43.640Z,49.1
2023-02-28T15:30:59.866Z,49.8
2023-02-28T15:32:15.135Z,48.9
2023-02-28T15:33:31.371Z,49.9
2023-02-28T15:34:47.615Z,49.5
2023-02-28T15:36:03.841Z,50.2
2023-02-28T15:38:36.322Z,50.3
2023-02-28T15:39:52.565Z,49.3
2023-02-28T15:41:08.807Z,50.6
2023-02-28T15:42:25.039Z,50
2023-02-28T15:43:41.283Z,49.7
2023-02-28T15:44:57.514Z,50
2023-02-28T15:46:13.753Z,50.7
2023-02-28T15:47:29.989Z,51.2
2023-02-28T15:48:45.261Z,51.2
2023-02-28T15:50:01.488Z,51.3
2023-02-28T15:51:17.743Z,52.1
2023-02-28T15:52:33.970Z,52.9
2023-02-28T15:55:06.449Z,53.9
2023-02-28T15:56:22.681Z,53.6
2023-02-28T15:57:38.937Z,53.9
2023-02-28T15:58:55.174Z,54.2
2023-02-28T16:00:11.419Z,55.3
2023-02-28T16:01:27.651Z,55
2023-02-28T16:02:43.885Z,55.1
2023-02-28T16:04:00.138Z,55.8
2023-02-28T16:05:15.396Z,55.5
2023-02-28T16:06:31.629Z,56
2023-02-28T16:07:47.870Z,56.9
2023-02-28T16:09:04.115Z,56.6
2023-02-28T16:10:20.000Z,56.9
2023-02-28T16:11:36.579Z,57.5
2023-02-28T16:12:52.836Z,57.7
2023-02-28T16:14:09.069Z,57.8
2023-02-28T16:15:25.301Z,58
2023-02-28T16:16:41.539Z,58.3
2023-02-28T16:17:57.797Z,58.8
2023-02-28T16:19:14.019Z,58.6
2023-02-28T16:20:30.279Z,59.1
2023-02-28T16:21:45.531Z,59.1
2023-02-28T16:23:01.757Z,59.2
2023-02-28T16:24:17.997Z,59
2023-02-28T16:25:34.246Z,59.6
2023-02-28T16:26:50.489Z,60.5
2023-02-28T16:28:06.732Z,60.7
2023-02-28T16:29:22.964Z,60.4
2023-02-28T16:30:39.202Z,61.5
2023-02-28T16:31:55.448Z,60.7
2023-02-28T16:33:11.684Z,61.9
2023-02-28T16:34:27.918Z,62.2
2023-02-28T16:35:44.157Z,62.2
2023-02-28T16:37:00.395Z,62.7
2023-02-28T16:38:15.654Z,69.3
2023-02-28T16:39:31.921Z,64.4
2023-02-28T16:40:48.141Z,63.9
2023-02-28T16:42:04.381Z,64.7
2023-02-28T16:43:20.622Z,63.3
2023-02-28T16:44:36.852Z,63.8
2023-02-28T16:45:53.105Z,63.8
2023-02-28T16:47:09.349Z,63.9
2023-02-28T16:48:25.587Z,69
2023-02-28T16:49:41.824Z,64.4
2023-02-28T16:50:58.056Z,65.3
2023-02-28T16:52:14.293Z,64.4
2023-02-28T16:53:30.530Z,65.6
2023-02-28T16:54:45.792Z,64
2023-02-28T16:56:02.031Z,65.6
2023-02-28T16:57:18.280Z,66
2023-02-28T16:58:34.516Z,65.9
2023-02-28T16:59:50.759Z,66.4
2023-02-28T17:01:06.996Z,65.9
2023-02-28T17:02:23.230Z,66.5
2023-02-28T17:03:39.478Z,67.3
2023-02-28T17:04:55.717Z,67.3
2023-02-28T17:06:11.957Z,68.1